Time;durP1;ratioP1;P1;durP2;ratioP2;P2;SDS_P1;SDS_P2;PMS_P1;PMS_P2;Temp;Humidity;BMP_temperature;BMP_pressure;BME280_temperature;BME280_humidity;BME280_pressure;Samples;Min_cycle;Max_cycle;Signal;HPM_P1;HPM_P2
2023/10/24 00:02:05;;;;;;;1999.90;999.90;;;;;;;;;;5086903;28;20281;-64
2023/10/24 00:04:34;;;;;;;1999.90;999.90;;;;;;;;;;5086850;28;20240;-64
2023/10/24 00:07:01;;;;;;;1999.90;999.90;;;;;;;;;;5086448;28;20202;-64
2023/10/24 00:09:28;;;;;;;1999.90;999.90;;;;;;;;;;5087192;28;20210;-64
2023/10/24 00:11:56;;;;;;;1999.90;999.90;;;;;;;;;;5086433;28;20195;-65
2023/10/24 00:14:23;;;;;;;1999.90;999.90;;;;;;;;;;5087103;28;20595;-65
2023/10/24 00:16:50;;;;;;;1999.90;999.90;;;;;;;;;;5086229;28;20192;-65
2023/10/24 00:19:17;;;;;;;1999.90;999.90;;;;;;;;;;5086831;28;20186;-65
2023/10/24 00:21:46;;;;;;;1999.90;999.90;;;;;;;;;;5086807;28;20670;-65
2023/10/24 00:24:14;;;;;;;1999.90;999.90;;;;;;;;;;5086719;28;20725;-65
2023/10/24 00:26:41;;;;;;;1999.90;999.90;;;;;;;;;;5087245;28;20194;-65
2023/10/24 00:29:08;;;;;;;1999.90;999.90;;;;;;;;;;5085788;28;20210;-65
2023/10/24 00:31:36;;;;;;;1999.90;999.90;;;;;;;;;;5088554;28;20204;-65
2023/10/24 00:34:03;;;;;;;1999.90;999.90;;;;;;;;;;5089677;28;20300;-65
2023/10/24 00:36:30;;;;;;;1999.90;999.90;;;;;;;;;;5090396;28;20589;-65
2023/10/24 00:38:59;;;;;;;1999.90;999.90;;;;;;;;;;5088303;28;20208;-65
2023/10/24 00:41:26;;;;;;;1999.90;999.90;;;;;;;;;;5088850;28;20216;-65
2023/10/24 00:43:54;;;;;;;1999.90;999.90;;;;;;;;;;5088589;28;20206;-66
2023/10/24 00:46:21;;;;;;;1999.90;999.90;;;;;;;;;;5090236;28;20273;-65
2023/10/24 00:48:49;;;;;;;1999.90;999.90;;;;;;;;;;5090617;28;20190;-65
2023/10/24 00:51:16;;;;;;;1999.90;999.90;;;;;;;;;;5088593;28;20205;-65
2023/10/24 00:53:43;;;;;;;1999.90;999.90;;;;;;;;;;5090493;28;20262;-65
2023/10/24 00:56:12;;;;;;;1999.90;999.90;;;;;;;;;;5089183;28;20206;-65
2023/10/24 00:58:40;;;;;;;1999.90;999.90;;;;;;;;;;5090288;28;20212;-65
2023/10/24 01:01:11;;;;;;;1999.90;999.90;;;;;;;;;;5088121;28;20414;-65
2023/10/24 01:03:39;;;;;;;1999.90;999.90;;;;;;;;;;5089555;28;20214;-65
2023/10/24 01:06:07;;;;;;;1999.90;999.90;;;;;;;;;;5089781;28;20323;-66
2023/10/24 01:08:34;;;;;;;1999.90;999.90;;;;;;;;;;5089180;28;20190;-65
2023/10/24 01:11:02;;;;;;;1999.90;999.90;;;;;;;;;;5089682;28;20213;-66
2023/10/24 01:13:30;;;;;;;1999.90;999.90;;;;;;;;;;5088070;28;20290;-65
2023/10/24 01:15:58;;;;;;;1999.90;999.90;;;;;;;;;;5089306;28;20229;-66
2023/10/24 01:18:25;;;;;;;1999.90;999.90;;;;;;;;;;5089604;28;20697;-65
2023/10/24 01:20:53;;;;;;;1999.90;999.90;;;;;;;;;;5089123;28;20191;-66
2023/10/24 01:23:22;;;;;;;1999.90;999.90;;;;;;;;;;5089514;28;20700;-66
2023/10/24 01:25:50;;;;;;;1999.90;999.90;;;;;;;;;;5089440;28;20672;-66
2023/10/24 01:28:18;;;;;;;1999.90;999.90;;;;;;;;;;5089416;28;20281;-66
2023/10/24 01:30:45;;;;;;;1999.90;999.90;;;;;;;;;;5089416;28;20194;-66
2023/10/24 01:33:13;;;;;;;1999.90;999.90;;;;;;;;;;5089193;28;20191;-65
2023/10/24 01:35:40;;;;;;;1999.90;999.90;;;;;;;;;;5089232;28;20239;-66
2023/10/24 01:38:07;;;;;;;1999.90;999.90;;;;;;;;;;5088499;28;20672;-66
2023/10/24 01:40:36;;;;;;;1999.90;999.90;;;;;;;;;;5089657;28;20198;-66
2023/10/24 01:43:03;;;;;;;1999.90;999.90;;;;;;;;;;5088011;28;20277;-66
2023/10/24 01:45:31;;;;;;;1999.90;999.90;;;;;;;;;;5089465;28;20202;-66
2023/10/24 01:47:58;;;;;;;1999.90;999.90;;;;;;;;;;5088519;28;20194;-66
2023/10/24 01:50:25;;;;;;;1999.90;999.90;;;;;;;;;;5089053;28;20194;-65
2023/10/24 01:52:52;;;;;;;1999.90;999.90;;;;;;;;;;5087434;28;20193;-66
2023/10/24 01:55:20;;;;;;;1999.90;999.90;;;;;;;;;;5088258;28;20197;-66
2023/10/24 01:57:48;;;;;;;1999.90;999.90;;;;;;;;;;5089597;28;20198;-66
2023/10/24 02:00:16;;;;;;;1999.90;999.90;;;;;;;;;;5088300;28;20649;-66
2023/10/24 02:02:43;;;;;;;1999.90;999.90;;;;;;;;;;5089203;28;20197;-66
2023/10/24 02:05:12;;;;;;;1999.90;999.90;;;;;;;;;;5087777;28;20724;-66
2023/10/24 02:07:39;;;;;;;1999.90;999.90;;;;;;;;;;5088829;28;20194;-65
2023/10/24 02:10:07;;;;;;;1999.90;999.90;;;;;;;;;;5088232;28;20675;-66
2023/10/24 02:12:36;;;;;;;1999.90;999.90;;;;;;;;;;5088668;28;20201;-66
2023/10/24 02:15:05;;;;;;;1999.90;999.90;;;;;;;;;;5088505;28;20186;-65
2023/10/24 02:17:33;;;;;;;1999.90;999.90;;;;;;;;;;5088270;28;20197;-66
2023/10/24 02:20:00;;;;;;;1999.90;999.90;;;;;;;;;;5088463;28;20194;-66
2023/10/24 02:22:27;;;;;;;1999.90;999.90;;;;;;;;;;5088150;28;20248;-66
2023/10/24 02:24:55;;;;;;;1999.90;999.90;;;;;;;;;;5088493;28;20703;-66
2023/10/24 02:27:22;;;;;;;1999.90;999.90;;;;;;;;;;5087715;28;20277;-66
2023/10/24 02:29:49;;;;;;;1999.90;999.90;;;;;;;;;;5088459;28;20197;-66
2023/10/24 02:32:19;;;;;;;1999.90;999.90;;;;;;;;;;5088140;28;20191;-67
2023/10/24 02:34:49;;;;;;;1999.90;999.90;;;;;;;;;;5087773;28;20241;-67
2023/10/24 02:37:16;;;;;;;1999.90;999.90;;;;;;;;;;5088039;28;20236;-66
2023/10/24 02:39:44;;;;;;;1999.90;999.90;;;;;;;;;;5088053;28;20200;-66
2023/10/24 02:42:11;;;;;;;1999.90;999.90;;;;;;;;;;5087567;28;20190;-66
2023/10/24 02:44:38;;;;;;;1999.90;999.90;;;;;;;;;;5087649;28;20237;-66
2023/10/24 02:47:06;;;;;;;1999.90;999.90;;;;;;;;;;5087605;28;20221;-66
2023/10/24 02:49:34;;;;;;;1999.90;999.90;;;;;;;;;;5088108;28;20194;-66
2023/10/24 02:52:02;;;;;;;1999.90;999.90;;;;;;;;;;5086138;28;20190;-66
2023/10/24 02:54:30;;;;;;;1999.90;999.90;;;;;;;;;;5085944;28;20206;-67
2023/10/24 02:56:57;;;;;;;1999.90;999.90;;;;;;;;;;5087748;28;20194;-67
2023/10/24 02:59:24;;;;;;;1999.90;999.90;;;;;;;;;;5085858;28;20561;-67
2023/10/24 03:01:52;;;;;;;1999.90;999.90;;;;;;;;;;5087442;28;20835;-67
2023/10/24 03:04:19;;;;;;;1999.90;999.90;;;;;;;;;;5087191;28;20578;-67
2023/10/24 03:06:47;;;;;;;1999.90;999.90;;;;;;;;;;5087912;28;20186;-68
2023/10/24 03:09:15;;;;;;;1999.90;999.90;;;;;;;;;;5087051;28;20204;-68
2023/10/24 03:11:42;;;;;;;1999.90;999.90;;;;;;;;;;5088130;28;20195;-68
2023/10/24 03:14:10;;;;;;;1999.90;999.90;;;;;;;;;;5086819;28;20197;-67
2023/10/24 03:16:37;;;;;;;1999.90;999.90;;;;;;;;;;5087688;28;20197;-68
2023/10/24 03:19:04;;;;;;;1999.90;999.90;;;;;;;;;;5085827;28;20190;-67
2023/10/24 03:21:32;;;;;;;1999.90;999.90;;;;;;;;;;5087505;28;20645;-67
2023/10/24 03:24:00;;;;;;;1999.90;999.90;;;;;;;;;;5087517;28;20214;-67
2023/10/24 03:26:28;;;;;;;1999.90;999.90;;;;;;;;;;5086727;28;20205;-67
2023/10/24 03:28:55;;;;;;;1999.90;999.90;;;;;;;;;;5087060;28;20672;-67
2023/10/24 03:31:22;;;;;;;1999.90;999.90;;;;;;;;;;5086447;28;20299;-67
2023/10/24 03:33:49;;;;;;;1999.90;999.90;;;;;;;;;;5084906;28;20530;-67
2023/10/24 03:36:17;;;;;;;1999.90;999.90;;;;;;;;;;5084576;28;20206;-67
2023/10/24 03:38:45;;;;;;;1999.90;999.90;;;;;;;;;;5085789;28;20212;-67
2023/10/24 03:41:14;;;;;;;1999.90;999.90;;;;;;;;;;5085635;28;20201;-67
2023/10/24 03:43:47;;;;;;;1999.90;999.90;;;;;;;;;;5087025;28;20194;-66
2023/10/24 03:46:15;;;;;;;1999.90;999.90;;;;;;;;;;5087330;28;20194;-67
2023/10/24 03:48:42;;;;;;;1999.90;999.90;;;;;;;;;;5085097;28;20653;-67
2023/10/24 03:51:10;;;;;;;1999.90;999.90;;;;;;;;;;5086700;28;20190;-67
2023/10/24 03:53:37;;;;;;;1999.90;999.90;;;;;;;;;;5086963;28;20198;-67
2023/10/24 03:56:04;;;;;;;1999.90;999.90;;;;;;;;;;5085638;28;20204;-67
2023/10/24 03:58:33;;;;;;;1999.90;999.90;;;;;;;;;;5086671;28;20424;-67
2023/10/24 04:01:05;;;;;;;1999.90;999.90;;;;;;;;;;5086846;28;20202;-67
2023/10/24 04:03:32;;;;;;;1999.90;999.90;;;;;;;;;;5086782;28;20426;-67
2023/10/24 04:05:59;;;;;;;1999.90;999.90;;;;;;;;;;5088793;28;20262;-66
2023/10/24 04:08:27;;;;;;;1999.90;999.90;;;;;;;;;;5090345;28;20201;-67
2023/10/24 04:10:54;;;;;;;1999.90;999.90;;;;;;;;;;5090387;28;20190;-66
2023/10/24 04:13:21;;;;;;;1999.90;999.90;;;;;;;;;;5090257;28;20214;-67
2023/10/24 04:15:52;;;;;;;1999.90;999.90;;;;;;;;;;5090954;28;20196;-66
2023/10/24 04:18:19;;;;;;;1999.90;999.90;;;;;;;;;;5090467;28;20179;-67
2023/10/24 04:20:46;;;;;;;1999.90;999.90;;;;;;;;;;5090962;28;20198;-67
2023/10/24 04:23:15;;;;;;;1999.90;999.90;;;;;;;;;;5090662;28;20208;-67
2023/10/24 04:25:42;;;;;;;1999.90;999.90;;;;;;;;;;5089818;28;20218;-67
2023/10/24 04:28:10;;;;;;;1999.90;999.90;;;;;;;;;;5090688;28;20198;-66
2023/10/24 04:30:39;;;;;;;1999.90;999.90;;;;;;;;;;5088989;28;20191;-67
2023/10/24 04:33:08;;;;;;;1999.90;999.90;;;;;;;;;;5090170;28;20287;-67
2023/10/24 04:35:43;;;;;;;1999.90;999.90;;;;;;;;;;5088324;28;20695;-67
2023/10/24 04:38:10;;;;;;;1999.90;999.90;;;;;;;;;;5089250;28;20198;-66
2023/10/24 04:40:39;;;;;;;1999.90;999.90;;;;;;;;;;5089763;28;20465;-67
2023/10/24 04:43:06;;;;;;;1999.90;999.90;;;;;;;;;;5090565;28;20198;-67
2023/10/24 04:45:33;;;;;;;1999.90;999.90;;;;;;;;;;5089939;28;20550;-67
2023/10/24 04:48:01;;;;;;;1999.90;999.90;;;;;;;;;;5090022;28;20197;-67
2023/10/24 04:50:30;;;;;;;1999.90;999.90;;;;;;;;;;5089587;28;20198;-67
2023/10/24 04:52:57;;;;;;;1999.90;999.90;;;;;;;;;;5090430;28;20194;-66
2023/10/24 04:55:25;;;;;;;1999.90;999.90;;;;;;;;;;5089985;28;20192;-67
2023/10/24 04:57:52;;;;;;;1999.90;999.90;;;;;;;;;;5089905;28;20194;-66
2023/10/24 05:00:19;;;;;;;1999.90;999.90;;;;;;;;;;5090538;28;20200;-66
2023/10/24 05:02:47;;;;;;;1999.90;999.90;;;;;;;;;;5089803;28;20190;-66
2023/10/24 05:05:14;;;;;;;1999.90;999.90;;;;;;;;;;5089708;28;20217;-66
2023/10/24 05:07:43;;;;;;;1999.90;999.90;;;;;;;;;;5088012;28;20747;-67
2023/10/24 05:10:11;;;;;;;1999.90;999.90;;;;;;;;;;5088561;28;20204;-66
2023/10/24 05:12:38;;;;;;;1999.90;999.90;;;;;;;;;;5089726;28;20194;-66
2023/10/24 05:15:06;;;;;;;1999.90;999.90;;;;;;;;;;5089252;28;20201;-66
2023/10/24 05:17:33;;;;;;;1999.90;999.90;;;;;;;;;;5087482;28;20210;-66
2023/10/24 05:20:02;;;;;;;1999.90;999.90;;;;;;;;;;5089201;28;20222;-66
2023/10/24 05:22:30;;;;;;;1999.90;999.90;;;;;;;;;;5088995;28;20201;-66
2023/10/24 05:24:58;;;;;;;1999.90;999.90;;;;;;;;;;5089028;28;20218;-67
2023/10/24 05:27:27;;;;;;;1999.90;999.90;;;;;;;;;;5087298;28;20236;-66
2023/10/24 05:29:54;;;;;;;1999.90;999.90;;;;;;;;;;5089420;28;20251;-66
2023/10/24 05:32:21;;;;;;;1999.90;999.90;;;;;;;;;;5089248;28;20190;-66
2023/10/24 05:34:48;;;;;;;1999.90;999.90;;;;;;;;;;5088864;28;20214;-66
2023/10/24 05:37:16;;;;;;;1999.90;999.90;;;;;;;;;;5086946;28;20192;-66
2023/10/24 05:39:43;;;;;;;1999.90;999.90;;;;;;;;;;5087423;28;20240;-67
2023/10/24 05:42:12;;;;;;;1999.90;999.90;;;;;;;;;;5087460;28;20198;-66
2023/10/24 05:44:39;;;;;;;1999.90;999.90;;;;;;;;;;5085642;28;20230;-66
2023/10/24 05:47:06;;;;;;;1999.90;999.90;;;;;;;;;;5087616;28;20200;-66
2023/10/24 05:49:34;;;;;;;1999.90;999.90;;;;;;;;;;5085630;28;20519;-66
2023/10/24 05:52:01;;;;;;;1999.90;999.90;;;;;;;;;;5089920;28;20191;-66
2023/10/24 05:54:29;;;;;;;1999.90;999.90;;;;;;;;;;5088421;28;20194;-66
2023/10/24 05:56:56;;;;;;;1999.90;999.90;;;;;;;;;;5089072;28;20186;-66
2023/10/24 05:59:26;;;;;;;1999.90;999.90;;;;;;;;;;5089353;28;20186;-66
2023/10/24 06:01:53;;;;;;;1999.90;999.90;;;;;;;;;;5088631;28;20202;-67
2023/10/24 06:04:20;;;;;;;1999.90;999.90;;;;;;;;;;5088890;28;20194;-66
2023/10/24 06:06:48;;;;;;;1999.90;999.90;;;;;;;;;;5088565;28;20539;-66
2023/10/24 06:09:15;;;;;;;1999.90;999.90;;;;;;;;;;5089147;28;20197;-66
2023/10/24 06:11:42;;;;;;;1999.90;999.90;;;;;;;;;;5088078;28;20207;-66
2023/10/24 06:14:10;;;;;;;1999.90;999.90;;;;;;;;;;5088602;28;20653;-66
2023/10/24 06:16:38;;;;;;;1999.90;999.90;;;;;;;;;;5088171;28;20189;-66
2023/10/24 06:19:06;;;;;;;1999.90;999.90;;;;;;;;;;5088480;28;20540;-66
2023/10/24 06:21:33;;;;;;;1999.90;999.90;;;;;;;;;;5088223;28;20187;-67
2023/10/24 06:24:00;;;;;;;1999.90;999.90;;;;;;;;;;5088275;28;20190;-66
2023/10/24 06:26:28;;;;;;;1999.90;999.90;;;;;;;;;;5088800;28;20246;-66
2023/10/24 06:28:55;;;;;;;1999.90;999.90;;;;;;;;;;5087537;28;20217;-66
2023/10/24 06:31:23;;;;;;;1999.90;999.90;;;;;;;;;;5088529;28;20201;-66
2023/10/24 06:33:51;;;;;;;1999.90;999.90;;;;;;;;;;5087826;28;20206;-66
2023/10/24 06:36:20;;;;;;;1999.90;999.90;;;;;;;;;;5087698;28;20733;-67
2023/10/24 06:38:48;;;;;;;1999.90;999.90;;;;;;;;;;5086375;28;20212;-66
2023/10/24 06:41:16;;;;;;;1999.90;999.90;;;;;;;;;;5088194;28;20198;-67
2023/10/24 06:43:43;;;;;;;1999.90;999.90;;;;;;;;;;5086533;28;20885;-67
2023/10/24 06:46:11;;;;;;;1999.90;999.90;;;;;;;;;;5086204;28;20226;-66
2023/10/24 06:48:38;;;;;;;1999.90;999.90;;;;;;;;;;5088211;28;20264;-67
2023/10/24 06:51:07;;;;;;;1999.90;999.90;;;;;;;;;;5087625;28;20201;-66
2023/10/24 06:53:34;;;;;;;1999.90;999.90;;;;;;;;;;5088097;28;20721;-66
2023/10/24 06:56:02;;;;;;;1999.90;999.90;;;;;;;;;;5087707;28;20569;-67
2023/10/24 06:58:29;;;;;;;1999.90;999.90;;;;;;;;;;5087596;28;20194;-66
2023/10/24 07:00:56;;;;;;;1999.90;999.90;;;;;;;;;;5087602;28;20668;-67
2023/10/24 07:03:24;;;;;;;1999.90;999.90;;;;;;;;;;5087057;28;20194;-66
2023/10/24 07:05:52;;;;;;;1999.90;999.90;;;;;;;;;;5087753;28;20226;-67
2023/10/24 07:08:21;;;;;;;1999.90;999.90;;;;;;;;;;5087429;28;21108;-67
2023/10/24 07:10:48;;;;;;;1999.90;999.90;;;;;;;;;;5087464;28;20194;-67
2023/10/24 07:13:15;;;;;;;1999.90;999.90;;;;;;;;;;5087362;28;20265;-66
2023/10/24 07:15:43;;;;;;;1999.90;999.90;;;;;;;;;;5086986;28;20206;-67
2023/10/24 07:18:10;;;;;;;1999.90;999.90;;;;;;;;;;5086106;28;20657;-67
2023/10/24 07:20:37;;;;;;;1999.90;999.90;;;;;;;;;;5087290;28;20190;-67
2023/10/24 07:23:05;;;;;;;1999.90;999.90;;;;;;;;;;5087404;28;20205;-67
2023/10/24 07:25:34;;;;;;;1999.90;999.90;;;;;;;;;;5087196;28;20218;-67
2023/10/24 07:28:02;;;;;;;1999.90;999.90;;;;;;;;;;5085661;28;20564;-67
2023/10/24 07:30:29;;;;;;;1999.90;999.90;;;;;;;;;;5087256;28;20545;-67
2023/10/24 07:32:56;;;;;;;1999.90;999.90;;;;;;;;;;5086684;28;20202;-67
2023/10/24 07:35:24;;;;;;;1999.90;999.90;;;;;;;;;;5086886;28;20237;-66
2023/10/24 07:37:51;;;;;;;1999.90;999.90;;;;;;;;;;5086202;28;20190;-67
2023/10/24 07:40:19;;;;;;;1999.90;999.90;;;;;;;;;;5086884;28;20211;-67
2023/10/24 07:42:47;;;;;;;1999.90;999.90;;;;;;;;;;5086472;28;20248;-67
2023/10/24 07:45:15;;;;;;;1999.90;999.90;;;;;;;;;;5087091;28;20213;-66
2023/10/24 07:47:42;;;;;;;1999.90;999.90;;;;;;;;;;5087179;28;20549;-67
2023/10/24 07:50:10;;;;;;;1999.90;999.90;;;;;;;;;;5086683;28;20193;-67
2023/10/24 07:52:38;;;;;;;1999.90;999.90;;;;;;;;;;5087098;28;20587;-67
2023/10/24 07:55:05;;;;;;;1999.90;999.90;;;;;;;;;;5086121;28;20202;-66
2023/10/24 07:57:33;;;;;;;1999.90;999.90;;;;;;;;;;5087525;28;20236;-67
2023/10/24 08:00:01;;;;;;;1999.90;999.90;;;;;;;;;;5086065;28;20198;-67
2023/10/24 08:02:29;;;;;;;1999.90;999.90;;;;;;;;;;5087157;28;20714;-67
2023/10/24 08:04:56;;;;;;;1999.90;999.90;;;;;;;;;;5086564;28;20205;-67
2023/10/24 08:07:23;;;;;;;1999.90;999.90;;;;;;;;;;5086772;28;20197;-66
2023/10/24 08:09:50;;;;;;;1999.90;999.90;;;;;;;;;;5086587;28;20193;-67
2023/10/24 08:12:18;;;;;;;1999.90;999.90;;;;;;;;;;5086329;28;20186;-67
2023/10/24 08:14:45;;;;;;;1999.90;999.90;;;;;;;;;;5087312;28;20587;-66
2023/10/24 08:17:14;;;;;;;1999.90;999.90;;;;;;;;;;5084743;28;20359;-67
2023/10/24 08:19:41;;;;;;;1999.90;999.90;;;;;;;;;;5087154;28;20205;-67
2023/10/24 08:22:09;;;;;;;1999.90;999.90;;;;;;;;;;5086325;28;20568;-67
2023/10/24 08:24:36;;;;;;;1999.90;999.90;;;;;;;;;;5086724;28;20191;-67
2023/10/24 08:27:04;;;;;;;1999.90;999.90;;;;;;;;;;5086264;28;20222;-66
2023/10/24 08:29:31;;;;;;;1999.90;999.90;;;;;;;;;;5086582;28;20202;-67
2023/10/24 08:31:59;;;;;;;1999.90;999.90;;;;;;;;;;5086402;28;20305;-67
2023/10/24 08:34:27;;;;;;;1999.90;999.90;;;;;;;;;;5086002;28;20190;-66
2023/10/24 08:36:55;;;;;;;1999.90;999.90;;;;;;;;;;5086646;28;20186;-67
2023/10/24 08:39:23;;;;;;;1999.90;999.90;;;;;;;;;;5086207;28;20195;-67
2023/10/24 08:41:53;;;;;;;1999.90;999.90;;;;;;;;;;5086761;28;20195;-67
2023/10/24 08:44:22;;;;;;;1999.90;999.90;;;;;;;;;;5086780;28;20514;-67
2023/10/24 08:46:50;;;;;;;1999.90;999.90;;;;;;;;;;5086388;28;20210;-67
2023/10/24 08:49:18;;;;;;;1999.90;999.90;;;;;;;;;;5086853;28;20272;-67
2023/10/24 08:51:47;;;;;;;1999.90;999.90;;;;;;;;;;5085291;28;20691;-67
2023/10/24 08:54:15;;;;;;;1999.90;999.90;;;;;;;;;;5089817;28;20658;-66
2023/10/24 08:56:43;;;;;;;1999.90;999.90;;;;;;;;;;5090124;28;20198;-67
2023/10/24 08:59:11;;;;;;;1999.90;999.90;;;;;;;;;;5089481;28;20553;-66
2023/10/24 09:01:38;;;;;;;1999.90;999.90;;;;;;;;;;5090082;28;20205;-67
2023/10/24 09:04:06;;;;;;;1999.90;999.90;;;;;;;;;;5089168;28;20194;-66
2023/10/24 09:06:35;;;;;;;1999.90;999.90;;;;;;;;;;5088451;28;20222;-68
2023/10/24 09:09:04;;;;;;;1999.90;999.90;;;;;;;;;;5089027;28;20197;-67
2023/10/24 09:11:46;;;;;;;1999.90;999.90;;;;;;;;;;5090285;28;20198;-67
2023/10/24 09:14:13;;;;;;;1999.90;999.90;;;;;;;;;;5088828;28;20272;-67
2023/10/24 09:16:40;;;;;;;1999.90;999.90;;;;;;;;;;5089519;28;20195;-67
2023/10/24 09:19:13;;;;;;;1999.90;999.90;;;;;;;;;;5088456;28;20191;-67
2023/10/24 09:21:41;;;;;;;1999.90;999.90;;;;;;;;;;5088735;28;20214;-67
2023/10/24 09:24:13;;;;;;;1999.90;999.90;;;;;;;;;;5089502;28;20195;-67
2023/10/24 09:26:40;;;;;;;1999.90;999.90;;;;;;;;;;5087490;28;20207;-67
2023/10/24 09:29:09;;;;;;;1999.90;999.90;;;;;;;;;;5089277;28;20218;-67
2023/10/24 09:31:37;;;;;;;1999.90;999.90;;;;;;;;;;5089064;28;20206;-67
2023/10/24 09:34:04;;;;;;;1999.90;999.90;;;;;;;;;;5089763;28;20222;-67
2023/10/24 09:36:32;;;;;;;1999.90;999.90;;;;;;;;;;5089173;28;20719;-67
2023/10/24 09:38:59;;;;;;;1999.90;999.90;;;;;;;;;;5088314;28;20193;-67
2023/10/24 09:41:28;;;;;;;1999.90;999.90;;;;;;;;;;5089703;28;20186;-67
2023/10/24 09:43:56;;;;;;;1999.90;999.90;;;;;;;;;;5089276;28;20208;-67
2023/10/24 09:46:24;;;;;;;1999.90;999.90;;;;;;;;;;5088747;28;20230;-67
2023/10/24 09:48:52;;;;;;;1999.90;999.90;;;;;;;;;;5089425;28;20278;-67
2023/10/24 09:51:20;;;;;;;1999.90;999.90;;;;;;;;;;5088459;28;20897;-67
2023/10/24 09:53:48;;;;;;;1999.90;999.90;;;;;;;;;;5089298;28;20196;-67
2023/10/24 09:56:15;;;;;;;1999.90;999.90;;;;;;;;;;5088165;28;20203;-67
2023/10/24 09:58:44;;;;;;;1999.90;999.90;;;;;;;;;;5087686;28;20646;-67
2023/10/24 10:01:11;;;;;;;1999.90;999.90;;;;;;;;;;5087958;28;20186;-67
2023/10/24 10:03:39;;;;;;;1999.90;999.90;;;;;;;;;;5088963;28;20657;-67
2023/10/24 10:06:07;;;;;;;1999.90;999.90;;;;;;;;;;5088154;28;20241;-67
2023/10/24 10:08:36;;;;;;;1999.90;999.90;;;;;;;;;;5088569;28;20217;-67
2023/10/24 10:11:05;;;;;;;1999.90;999.90;;;;;;;;;;5088328;28;20668;-66
2023/10/24 10:13:35;;;;;;;1999.90;999.90;;;;;;;;;;5087016;28;20194;-67
2023/10/24 10:16:09;;;;;;;1999.90;999.90;;;;;;;;;;5089425;28;20203;-67
2023/10/24 10:18:43;;;;;;;1999.90;999.90;;;;;;;;;;5088128;28;20182;-67
2023/10/24 10:21:16;;;;;;;1999.90;999.90;;;;;;;;;;5088059;28;20186;-67
2023/10/24 10:23:53;;;;;;;1999.90;999.90;;;;;;;;;;5088576;28;20206;-67
2023/10/24 10:26:24;;;;;;;1999.90;999.90;;;;;;;;;;5087651;28;20201;-67
2023/10/24 10:28:58;;;;;;;1999.90;999.90;;;;;;;;;;5088768;28;20726;-67
2023/10/24 10:31:43;;;;;;;1999.90;999.90;;;;;;;;;;5087423;28;20936;-67
2023/10/24 10:34:13;;;;;;;1999.90;999.90;;;;;;;;;;5087821;28;20179;-67
2023/10/24 10:36:40;;;;;;;1999.90;999.90;;;;;;;;;;5087938;28;20248;-67
2023/10/24 10:39:10;;;;;;;1999.90;999.90;;;;;;;;;;5087528;28;20569;-67
2023/10/24 10:41:38;;;;;;;1999.90;999.90;;;;;;;;;;5088516;28;20269;-67
2023/10/24 10:44:25;;;;;;;1999.90;999.90;;;;;;;;;;5087683;28;20214;-67
2023/10/24 10:47:00;;;;;;;1999.90;999.90;;;;;;;;;;5088225;28;20233;-67
2023/10/24 10:49:38;;;;;;;1999.90;999.90;;;;;;;;;;5085940;28;20588;-67
2023/10/24 10:52:09;;;;;;;1999.90;999.90;;;;;;;;;;5085863;28;20201;-65
2023/10/24 10:54:39;;;;;;;1999.90;999.90;;;;;;;;;;5088118;28;20193;-67
2023/10/24 10:57:07;;;;;;;1999.90;999.90;;;;;;;;;;5085797;28;20199;-67
2023/10/24 10:59:40;;;;;;;1999.90;999.90;;;;;;;;;;5088290;28;20193;-67
2023/10/24 11:02:16;;;;;;;1999.90;999.90;;;;;;;;;;5087524;28;20174;-67
2023/10/24 11:04:45;;;;;;;1999.90;999.90;;;;;;;;;;5086276;28;20205;-68
2023/10/24 11:07:13;;;;;;;1999.90;999.90;;;;;;;;;;5086959;28;20230;-67
2023/10/24 11:09:41;;;;;;;1999.90;999.90;;;;;;;;;;5087245;28;20557;-68
2023/10/24 11:12:24;;;;;;;1999.90;999.90;;;;;;;;;;5088397;28;20600;-68
2023/10/24 11:15:06;;;;;;;1999.90;999.90;;;;;;;;;;5084589;28;20183;-69
2023/10/24 11:17:34;;;;;;;1999.90;999.90;;;;;;;;;;5084972;28;20190;-69
2023/10/24 11:20:05;;;;;;;1999.90;999.90;;;;;;;;;;5086105;28;20202;-69
2023/10/24 11:22:32;;;;;;;1999.90;999.90;;;;;;;;;;5086445;28;20401;-69
2023/10/24 11:24:59;;;;;;;1999.90;999.90;;;;;;;;;;5087739;28;20198;-69
2023/10/24 11:27:27;;;;;;;1999.90;999.90;;;;;;;;;;5086487;28;20232;-69
2023/10/24 11:29:54;;;;;;;1999.90;999.90;;;;;;;;;;5087855;28;20191;-71
2023/10/24 11:32:22;;;;;;;1999.90;999.90;;;;;;;;;;5086386;28;20190;-71
2023/10/24 11:35:06;;;;;;;1999.90;999.90;;;;;;;;;;5052904;28;20210;-70
2023/10/24 11:37:34;;;;;;;1999.90;999.90;;;;;;;;;;5087331;28;20179;-69
2023/10/24 11:40:01;;;;;;;1999.90;999.90;;;;;;;;;;5086868;28;20665;-68
2023/10/24 11:42:29;;;;;;;1999.90;999.90;;;;;;;;;;5086764;28;20210;-68
2023/10/24 11:44:56;;;;;;;1999.90;999.90;;;;;;;;;;5086772;28;20658;-67
2023/10/24 11:47:23;;;;;;;1999.90;999.90;;;;;;;;;;5086762;28;20217;-67
2023/10/24 11:49:51;;;;;;;1999.90;999.90;;;;;;;;;;5087001;28;20194;-67
2023/10/24 11:52:19;;;;;;;1999.90;999.90;;;;;;;;;;5086547;28;20269;-68
2023/10/24 11:54:52;;;;;;;1999.90;999.90;;;;;;;;;;5083622;28;20201;-67
2023/10/24 11:57:19;;;;;;;1999.90;999.90;;;;;;;;;;5085223;28;20549;-67
2023/10/24 11:59:49;;;;;;;1999.90;999.90;;;;;;;;;;5087642;28;20194;-66
2023/10/24 12:02:17;;;;;;;1999.90;999.90;;;;;;;;;;5086378;28;20190;-65
2023/10/24 12:04:50;;;;;;;1999.90;999.90;;;;;;;;;;5086153;28;20588;-65
2023/10/24 12:07:17;;;;;;;1999.90;999.90;;;;;;;;;;5086742;28;20242;-66
2023/10/24 12:09:46;;;;;;;1999.90;999.90;;;;;;;;;;5085595;28;20213;-66
2023/10/24 12:12:14;;;;;;;1999.90;999.90;;;;;;;;;;5085551;28;20191;-66
2023/10/24 12:14:43;;;;;;;1999.90;999.90;;;;;;;;;;5084814;28;20210;-66
2023/10/24 12:17:10;;;;;;;1999.90;999.90;;;;;;;;;;5087044;28;20194;-66
2023/10/24 12:19:38;;;;;;;1999.90;999.90;;;;;;;;;;5085938;28;20205;-66
2023/10/24 12:22:05;;;;;;;1999.90;999.90;;;;;;;;;;5086393;28;20567;-66
2023/10/24 12:24:33;;;;;;;1999.90;999.90;;;;;;;;;;5084919;28;20300;-67
2023/10/24 12:27:01;;;;;;;1999.90;999.90;;;;;;;;;;5088607;28;20214;-67
2023/10/24 12:29:28;;;;;;;1999.90;999.90;;;;;;;;;;5090249;28;20190;-67
2023/10/24 12:31:56;;;;;;;1999.90;999.90;;;;;;;;;;5090287;28;20186;-67
2023/10/24 12:34:23;;;;;;;1999.90;999.90;;;;;;;;;;5090350;28;20205;-66
2023/10/24 12:36:53;;;;;;;1999.90;999.90;;;;;;;;;;5089609;28;20694;-65
2023/10/24 12:39:21;;;;;;;1999.90;999.90;;;;;;;;;;5091319;28;20289;-65
2023/10/24 12:41:48;;;;;;;1999.90;999.90;;;;;;;;;;5089965;28;20562;-65
2023/10/24 12:44:17;;;;;;;1999.90;999.90;;;;;;;;;;5090483;28;20190;-65
2023/10/24 12:46:45;;;;;;;1999.90;999.90;;;;;;;;;;5088557;28;20199;-65
2023/10/24 12:49:12;;;;;;;1999.90;999.90;;;;;;;;;;5090041;28;20186;-65
2023/10/24 12:51:41;;;;;;;1999.90;999.90;;;;;;;;;;5088953;28;20198;-65
2023/10/24 12:54:08;;;;;;;1999.90;999.90;;;;;;;;;;5089523;28;20197;-66
2023/10/24 12:56:36;;;;;;;1999.90;999.90;;;;;;;;;;5090150;28;20201;-65
2023/10/24 12:59:03;;;;;;;1999.90;999.90;;;;;;;;;;5088741;28;20571;-65
2023/10/24 13:01:32;;;;;;;1999.90;999.90;;;;;;;;;;5089718;28;20194;-65
2023/10/24 13:03:59;;;;;;;1999.90;999.90;;;;;;;;;;5087731;28;20198;-64
2023/10/24 13:06:27;;;;;;;1999.90;999.90;;;;;;;;;;5088352;28;20283;-64
2023/10/24 13:08:54;;;;;;;1999.90;999.90;;;;;;;;;;5090102;28;20214;-65
2023/10/24 13:11:21;;;;;;;1999.90;999.90;;;;;;;;;;5089712;28;20869;-65
2023/10/24 13:13:49;;;;;;;1999.90;999.90;;;;;;;;;;5090471;28;20199;-66
2023/10/24 13:16:16;;;;;;;1999.90;999.90;;;;;;;;;;5089138;28;20199;-65
2023/10/24 13:18:45;;;;;;;1999.90;999.90;;;;;;;;;;5089636;28;20183;-65
2023/10/24 13:21:12;;;;;;;1999.90;999.90;;;;;;;;;;5089510;28;20201;-65
2023/10/24 13:23:39;;;;;;;1999.90;999.90;;;;;;;;;;5089199;28;20681;-66
2023/10/24 13:26:07;;;;;;;1999.90;999.90;;;;;;;;;;5089816;28;20248;-66
2023/10/24 13:28:34;;;;;;;1999.90;999.90;;;;;;;;;;5088830;28;20301;-65
2023/10/24 13:31:01;;;;;;;1999.90;999.90;;;;;;;;;;5090050;28;20208;-65
2023/10/24 13:33:29;;;;;;;1999.90;999.90;;;;;;;;;;5088872;28;20191;-65
2023/10/24 13:35:57;;;;;;;1999.90;999.90;;;;;;;;;;5089045;28;20694;-65
2023/10/24 13:38:25;;;;;;;1999.90;999.90;;;;;;;;;;5088632;28;20459;-65
2023/10/24 13:40:52;;;;;;;1999.90;999.90;;;;;;;;;;5088691;28;20684;-65
2023/10/24 13:43:19;;;;;;;1999.90;999.90;;;;;;;;;;5089594;28;20649;-65
2023/10/24 13:45:46;;;;;;;1999.90;999.90;;;;;;;;;;5088405;28;20652;-65
2023/10/24 13:48:14;;;;;;;1999.90;999.90;;;;;;;;;;5089671;28;20214;-65